sensor_id;sensor_type;location;lat;lon;timestamp;temperature;humidity
70166;SHT30;57541;47.408;18.822;2024-03-08T00:00:04;5.67;99.99
70166;SHT30;57541;47.408;18.822;2024-03-08T00:00:46;5.70;99.99
70166;SHT30;57541;47.408;18.822;2024-03-08T00:01:18;5.73;99.99
70166;SHT30;57541;47.408;18.822;2024-03-08T00:01:50;5.78;99.99
70166;SHT30;57541;47.408;18.822;2024-03-08T00:02:22;5.78;99.99
70166;SHT30;57541;47.408;18.822;2024-03-08T00:02:54;5.80;99.99
70166;SHT30;57541;47.408;18.822;2024-03-08T00:03:26;5.75;99.99
70166;SHT30;57541;47.408;18.822;2024-03-08T00:03:58;5.75;99.99
70166;SHT30;57541;47.408;18.822;2024-03-08T00:04:30;5.80;99.99
70166;SHT30;57541;47.408;18.822;2024-03-08T00:05:02;5.81;99.99
70166;SHT30;57541;47.408;18.822;2024-03-08T00:05:34;5.75;99.99
70166;SHT30;57541;47.408;18.822;2024-03-08T00:06:06;5.75;99.99
70166;SHT30;57541;47.408;18.822;2024-03-08T00:06:38;5.75;99.99
70166;SHT30;57541;47.408;18.822;2024-03-08T00:07:11;5.77;99.99
70166;SHT30;57541;47.408;18.822;2024-03-08T00:07:43;5.78;99.99
70166;SHT30;57541;47.408;18.822;2024-03-08T00:08:15;5.75;99.99
70166;SHT30;57541;47.408;18.822;2024-03-08T00:08:47;5.73;99.99
70166;SHT30;57541;47.408;18.822;2024-03-08T00:09:18;5.75;99.99
70166;SHT30;57541;47.408;18.822;2024-03-08T00:09:50;5.78;99.99
70166;SHT30;57541;47.408;18.822;2024-03-08T00:10:22;5.68;99.99
70166;SHT30;57541;47.408;18.822;2024-03-08T00:10:57;5.71;99.99
70166;SHT30;57541;47.408;18.822;2024-03-08T00:11:29;5.73;99.99
70166;SHT30;57541;47.408;18.822;2024-03-08T00:12:00;5.68;99.99
70166;SHT30;57541;47.408;18.822;2024-03-08T00:12:32;5.59;99.99
70166;SHT30;57541;47.408;18.822;2024-03-08T00:13:04;5.63;99.99
70166;SHT30;57541;47.408;18.822;2024-03-08T00:13:36;5.61;99.99
70166;SHT30;57541;47.408;18.822;2024-03-08T00:14:08;5.64;99.99
70166;SHT30;57541;47.408;18.822;2024-03-08T00:14:39;5.57;99.99
70166;SHT30;57541;47.408;18.822;2024-03-08T00:15:13;5.66;99.99
70166;SHT30;57541;47.408;18.822;2024-03-08T00:15:47;5.63;99.99
70166;SHT30;57541;47.408;18.822;2024-03-08T00:16:19;5.67;99.99
70166;SHT30;57541;47.408;18.822;2024-03-08T00:16:51;5.67;99.99
70166;SHT30;57541;47.408;18.822;2024-03-08T00:17:24;5.64;99.99
70166;SHT30;57541;47.408;18.822;2024-03-08T00:17:56;5.63;99.99
70166;SHT30;57541;47.408;18.822;2024-03-08T00:18:28;5.67;99.99
70166;SHT30;57541;47.408;18.822;2024-03-08T00:19:00;5.61;99.99
70166;SHT30;57541;47.408;18.822;2024-03-08T00:19:32;5.64;99.99
70166;SHT30;57541;47.408;18.822;2024-03-08T00:20:05;5.67;99.99
70166;SHT30;57541;47.408;18.822;2024-03-08T00:20:39;5.67;99.99
70166;SHT30;57541;47.408;18.822;2024-03-08T00:21:11;5.63;99.99
70166;SHT30;57541;47.408;18.822;2024-03-08T00:21:43;5.64;99.99
70166;SHT30;57541;47.408;18.822;2024-03-08T00:22:16;5.66;99.99
70166;SHT30;57541;47.408;18.822;2024-03-08T00:22:48;5.75;99.99
70166;SHT30;57541;47.408;18.822;2024-03-08T00:23:19;5.77;99.99
70166;SHT30;57541;47.408;18.822;2024-03-08T00:23:51;5.68;99.99
70166;SHT30;57541;47.408;18.822;2024-03-08T00:24:25;5.74;99.99
70166;SHT30;57541;47.408;18.822;2024-03-08T00:24:57;5.80;99.99
70166;SHT30;57541;47.408;18.822;2024-03-08T00:25:29;5.64;99.99
70166;SHT30;57541;47.408;18.822;2024-03-08T00:26:00;5.67;99.99
70166;SHT30;57541;47.408;18.822;2024-03-08T00:26:32;5.63;99.99
70166;SHT30;57541;47.408;18.822;2024-03-08T00:27:04;5.63;99.99
70166;SHT30;57541;47.408;18.822;2024-03-08T00:27:38;5.54;99.99
70166;SHT30;57541;47.408;18.822;2024-03-08T00:28:10;5.57;99.99
70166;SHT30;57541;47.408;18.822;2024-03-08T00:28:44;5.56;99.99
70166;SHT30;57541;47.408;18.822;2024-03-08T00:29:16;5.53;99.99
70166;SHT30;57541;47.408;18.822;2024-03-08T00:29:49;5.57;99.99
70166;SHT30;57541;47.408;18.822;2024-03-08T00:30:21;5.61;99.99
70166;SHT30;57541;47.408;18.822;2024-03-08T00:30:54;5.63;99.99
70166;SHT30;57541;47.408;18.822;2024-03-08T00:31:26;5.61;99.99
70166;SHT30;57541;47.408;18.822;2024-03-08T00:31:57;5.57;99.99
70166;SHT30;57541;47.408;18.822;2024-03-08T00:32:29;5.53;99.99
70166;SHT30;57541;47.408;18.822;2024-03-08T00:33:01;5.56;99.99
70166;SHT30;57541;47.408;18.822;2024-03-08T00:33:33;5.57;99.99
70166;SHT30;57541;47.408;18.822;2024-03-08T00:34:05;5.63;99.99
70166;SHT30;57541;47.408;18.822;2024-03-08T00:34:36;5.63;99.99
70166;SHT30;57541;47.408;18.822;2024-03-08T00:35:08;5.70;99.99
70166;SHT30;57541;47.408;18.822;2024-03-08T00:35:40;5.77;99.99
70166;SHT30;57541;47.408;18.822;2024-03-08T00:36:12;5.75;99.99
70166;SHT30;57541;47.408;18.822;2024-03-08T00:36:44;5.73;99.99
70166;SHT30;57541;47.408;18.822;2024-03-08T00:37:16;5.66;99.99
70166;SHT30;57541;47.408;18.822;2024-03-08T00:37:48;5.64;99.99
70166;SHT30;57541;47.408;18.822;2024-03-08T00:38:20;5.74;99.99
70166;SHT30;57541;47.408;18.822;2024-03-08T00:38:51;5.70;99.99
70166;SHT30;57541;47.408;18.822;2024-03-08T00:39:23;5.73;99.99
70166;SHT30;57541;47.408;18.822;2024-03-08T00:39:55;5.61;99.99
70166;SHT30;57541;47.408;18.822;2024-03-08T00:40:27;5.64;99.99
70166;SHT30;57541;47.408;18.822;2024-03-08T00:41:00;5.64;99.99
70166;SHT30;57541;47.408;18.822;2024-03-08T00:41:32;5.67;99.99
70166;SHT30;57541;47.408;18.822;2024-03-08T00:42:04;5.68;99.99
70166;SHT30;57541;47.408;18.822;2024-03-08T00:42:36;5.77;99.99
70166;SHT30;57541;47.408;18.822;2024-03-08T00:43:10;5.73;99.99
70166;SHT30;57541;47.408;18.822;2024-03-08T00:43:41;5.68;99.99
70166;SHT30;57541;47.408;18.822;2024-03-08T00:44:13;5.66;99.99
70166;SHT30;57541;47.408;18.822;2024-03-08T00:44:45;5.67;99.99
70166;SHT30;57541;47.408;18.822;2024-03-08T00:45:17;5.61;99.99
70166;SHT30;57541;47.408;18.822;2024-03-08T00:45:49;5.70;99.99
70166;SHT30;57541;47.408;18.822;2024-03-08T00:46:21;5.71;99.99
70166;SHT30;57541;47.408;18.822;2024-03-08T00:46:53;5.70;99.99
70166;SHT30;57541;47.408;18.822;2024-03-08T00:47:26;5.73;99.99
70166;SHT30;57541;47.408;18.822;2024-03-08T00:47:58;5.77;99.99
70166;SHT30;57541;47.408;18.822;2024-03-08T00:48:30;5.81;99.99
70166;SHT30;57541;47.408;18.822;2024-03-08T00:49:02;5.74;99.99
70166;SHT30;57541;47.408;18.822;2024-03-08T00:49:34;5.84;99.99
70166;SHT30;57541;47.408;18.822;2024-03-08T00:50:08;5.81;99.99
70166;SHT30;57541;47.408;18.822;2024-03-08T00:50:40;5.66;99.99
70166;SHT30;57541;47.408;18.822;2024-03-08T00:51:12;5.66;99.99
70166;SHT30;57541;47.408;18.822;2024-03-08T00:51:44;5.74;99.99
70166;SHT30;57541;47.408;18.822;2024-03-08T00:52:16;5.86;99.99
70166;SHT30;57541;47.408;18.822;2024-03-08T00:52:50;5.81;99.99
70166;SHT30;57541;47.408;18.822;2024-03-08T00:53:21;5.77;99.99
70166;SHT30;57541;47.408;18.822;2024-03-08T00:53:53;5.75;99.99
70166;SHT30;57541;47.408;18.822;2024-03-08T00:54:25;5.75;99.99
70166;SHT30;57541;47.408;18.822;2024-03-08T00:54:57;5.77;99.99
70166;SHT30;57541;47.408;18.822;2024-03-08T00:55:28;5.77;99.99
70166;SHT30;57541;47.408;18.822;2024-03-08T00:56:01;5.88;99.99
70166;SHT30;57541;47.408;18.822;2024-03-08T00:56:32;5.88;99.99
70166;SHT30;57541;47.408;18.822;2024-03-08T00:57:05;5.88;99.99
70166;SHT30;57541;47.408;18.822;2024-03-08T00:57:38;5.81;99.99
70166;SHT30;57541;47.408;18.822;2024-03-08T00:58:10;5.87;99.99
70166;SHT30;57541;47.408;18.822;2024-03-08T00:58:41;5.84;99.99
70166;SHT30;57541;47.408;18.822;2024-03-08T00:59:13;5.84;99.99
70166;SHT30;57541;47.408;18.822;2024-03-08T00:59:45;5.78;99.99
70166;SHT30;57541;47.408;18.822;2024-03-08T01:00:18;5.75;99.99
70166;SHT30;57541;47.408;18.822;2024-03-08T01:00:50;5.81;99.99
70166;SHT30;57541;47.408;18.822;2024-03-08T01:01:22;5.84;99.99
70166;SHT30;57541;47.408;18.822;2024-03-08T01:01:53;5.80;99.99
70166;SHT30;57541;47.408;18.822;2024-03-08T01:02:26;5.87;99.99
70166;SHT30;57541;47.408;18.822;2024-03-08T01:02:57;5.87;99.99
70166;SHT30;57541;47.408;18.822;2024-03-08T01:03:29;5.86;99.99
70166;SHT30;57541;47.408;18.822;2024-03-08T01:04:03;5.84;99.99
70166;SHT30;57541;47.408;18.822;2024-03-08T01:04:35;5.86;99.99
70166;SHT30;57541;47.408;18.822;2024-03-08T01:05:07;5.90;99.99
70166;SHT30;57541;47.408;18.822;2024-03-08T01:05:39;5.78;99.99
70166;SHT30;57541;47.408;18.822;2024-03-08T01:06:10;5.77;99.99
70166;SHT30;57541;47.408;18.822;2024-03-08T01:06:43;5.78;99.99
70166;SHT30;57541;47.408;18.822;2024-03-08T01:07:17;5.71;99.99
70166;SHT30;57541;47.408;18.822;2024-03-08T01:07:48;5.73;99.99
70166;SHT30;57541;47.408;18.822;2024-03-08T01:08:21;5.75;99.99
70166;SHT30;57541;47.408;18.822;2024-03-08T01:08:52;5.75;99.99
70166;SHT30;57541;47.408;18.822;2024-03-08T01:09:25;5.78;99.99
70166;SHT30;57541;47.408;18.822;2024-03-08T01:09:58;5.81;99.99
70166;SHT30;57541;47.408;18.822;2024-03-08T01:10:30;5.80;99.99
70166;SHT30;57541;47.408;18.822;2024-03-08T01:11:02;5.77;99.99
70166;SHT30;57541;47.408;18.822;2024-03-08T01:11:34;5.78;99.99
70166;SHT30;57541;47.408;18.822;2024-03-08T01:12:06;5.83;99.99
70166;SHT30;57541;47.408;18.822;2024-03-08T01:12:39;5.83;99.99
70166;SHT30;57541;47.408;18.822;2024-03-08T01:13:11;5.88;99.99
70166;SHT30;57541;47.408;18.822;2024-03-08T01:13:43;5.86;99.99
70166;SHT30;57541;47.408;18.822;2024-03-08T01:14:15;5.86;99.99
70166;SHT30;57541;47.408;18.822;2024-03-08T01:14:47;5.83;99.99
70166;SHT30;57541;47.408;18.822;2024-03-08T01:15:19;5.78;99.99
70166;SHT30;57541;47.408;18.822;2024-03-08T01:15:51;5.81;99.99
70166;SHT30;57541;47.408;18.822;2024-03-08T01:16:23;5.77;99.99
70166;SHT30;57541;47.408;18.822;2024-03-08T01:16:54;5.73;99.99
70166;SHT30;57541;47.408;18.822;2024-03-08T01:17:26;5.70;99.99
70166;SHT30;57541;47.408;18.822;2024-03-08T01:17:58;5.68;99.99
70166;SHT30;57541;47.408;18.822;2024-03-08T01:18:31;5.70;99.99
70166;SHT30;57541;47.408;18.822;2024-03-08T01:19:02;5.78;99.99
70166;SHT30;57541;47.408;18.822;2024-03-08T01:19:35;5.84;99.99
70166;SHT30;57541;47.408;18.822;2024-03-08T01:20:07;5.87;99.99
70166;SHT30;57541;47.408;18.822;2024-03-08T01:20:42;5.75;99.99
70166;SHT30;57541;47.408;18.822;2024-03-08T01:21:14;5.84;99.99
70166;SHT30;57541;47.408;18.822;2024-03-08T01:21:46;5.90;99.99
70166;SHT30;57541;47.408;18.822;2024-03-08T01:22:17;5.93;99.99
70166;SHT30;57541;47.408;18.822;2024-03-08T01:22:49;5.90;99.99
70166;SHT30;57541;47.408;18.822;2024-03-08T01:23:21;5.91;99.99
70166;SHT30;57541;47.408;18.822;2024-03-08T01:23:52;5.88;99.99
70166;SHT30;57541;47.408;18.822;2024-03-08T01:24:24;5.90;99.99
70166;SHT30;57541;47.408;18.822;2024-03-08T01:24:56;5.86;99.99
70166;SHT30;57541;47.408;18.822;2024-03-08T01:25:29;5.84;99.99
70166;SHT30;57541;47.408;18.822;2024-03-08T01:26:00;5.86;99.99
70166;SHT30;57541;47.408;18.822;2024-03-08T01:26:33;5.86;99.99
70166;SHT30;57541;47.408;18.822;2024-03-08T01:27:08;5.91;99.99
70166;SHT30;57541;47.408;18.822;2024-03-08T01:27:41;5.86;99.99
70166;SHT30;57541;47.408;18.822;2024-03-08T01:28:12;5.95;99.99
70166;SHT30;57541;47.408;18.822;2024-03-08T01:28:44;6.01;99.99
70166;SHT30;57541;47.408;18.822;2024-03-08T01:29:16;5.87;99.99
70166;SHT30;57541;47.408;18.822;2024-03-08T01:29:47;5.73;99.99
70166;SHT30;57541;47.408;18.822;2024-03-08T01:30:19;5.57;99.99
70166;SHT30;57541;47.408;18.822;2024-03-08T01:30:51;5.66;99.99
70166;SHT30;57541;47.408;18.822;2024-03-08T01:31:27;5.73;99.99
70166;SHT30;57541;47.408;18.822;2024-03-08T01:32:00;5.77;99.99
70166;SHT30;57541;47.408;18.822;2024-03-08T01:32:33;5.80;99.99
70166;SHT30;57541;47.408;18.822;2024-03-08T01:33:05;5.77;99.99
70166;SHT30;57541;47.408;18.822;2024-03-08T01:33:37;5.77;99.99
70166;SHT30;57541;47.408;18.822;2024-03-08T01:34:10;5.70;99.99
70166;SHT30;57541;47.408;18.822;2024-03-08T01:34:42;5.83;99.99
70166;SHT30;57541;47.408;18.822;2024-03-08T01:35:13;5.77;99.99
70166;SHT30;57541;47.408;18.822;2024-03-08T01:35:45;5.71;99.99
70166;SHT30;57541;47.408;18.822;2024-03-08T01:36:17;5.74;99.99
70166;SHT30;57541;47.408;18.822;2024-03-08T01:36:51;5.75;99.99
70166;SHT30;57541;47.408;18.822;2024-03-08T01:37:22;5.74;99.99
70166;SHT30;57541;47.408;18.822;2024-03-08T01:37:54;5.71;99.99
70166;SHT30;57541;47.408;18.822;2024-03-08T01:38:26;5.75;99.99
70166;SHT30;57541;47.408;18.822;2024-03-08T01:38:57;5.78;99.99
70166;SHT30;57541;47.408;18.822;2024-03-08T01:39:29;5.78;99.99
70166;SHT30;57541;47.408;18.822;2024-03-08T01:40:01;5.73;99.99
70166;SHT30;57541;47.408;18.822;2024-03-08T01:40:34;5.71;99.99
70166;SHT30;57541;47.408;18.822;2024-03-08T01:41:08;5.75;99.99
70166;SHT30;57541;47.408;18.822;2024-03-08T01:41:40;5.74;99.99
70166;SHT30;57541;47.408;18.822;2024-03-08T01:42:12;5.86;99.99
70166;SHT30;57541;47.408;18.822;2024-03-08T01:42:46;5.86;99.99
70166;SHT30;57541;47.408;18.822;2024-03-08T01:43:25;5.84;99.99
70166;SHT30;57541;47.408;18.822;2024-03-08T01:43:59;5.97;99.99
70166;SHT30;57541;47.408;18.822;2024-03-08T01:44:31;6.04;99.99
70166;SHT30;57541;47.408;18.822;2024-03-08T01:45:06;6.01;99.99
70166;SHT30;57541;47.408;18.822;2024-03-08T01:45:38;6.09;99.99
70166;SHT30;57541;47.408;18.822;2024-03-08T01:46:12;6.14;99.99
70166;SHT30;57541;47.408;18.822;2024-03-08T01:46:47;6.09;99.99
70166;SHT30;57541;47.408;18.822;2024-03-08T01:47:21;6.19;99.99
70166;SHT30;57541;47.408;18.822;2024-03-08T01:47:54;6.12;99.99
70166;SHT30;57541;47.408;18.822;2024-03-08T01:48:27;6.07;99.99
70166;SHT30;57541;47.408;18.822;2024-03-08T01:49:01;6.18;99.99
70166;SHT30;57541;47.408;18.822;2024-03-08T01:49:33;6.11;99.99
70166;SHT30;57541;47.408;18.822;2024-03-08T01:50:05;6.09;99.99
70166;SHT30;57541;47.408;18.822;2024-03-08T01:50:40;6.02;99.99
70166;SHT30;57541;47.408;18.822;2024-03-08T01:51:13;5.94;99.99
70166;SHT30;57541;47.408;18.822;2024-03-08T01:51:48;5.90;99.99
70166;SHT30;57541;47.408;18.822;2024-03-08T01:52:20;5.93;99.99
70166;SHT30;57541;47.408;18.822;2024-03-08T01:52:54;5.95;99.99
70166;SHT30;57541;47.408;18.822;2024-03-08T01:53:27;5.97;99.99
70166;SHT30;57541;47.408;18.822;2024-03-08T01:54:01;5.94;99.99
70166;SHT30;57541;47.408;18.822;2024-03-08T01:54:34;5.99;99.99
70166;SHT30;57541;47.408;18.822;2024-03-08T01:55:07;5.98;99.99
70166;SHT30;57541;47.408;18.822;2024-03-08T01:55:39;5.88;99.99
70166;SHT30;57541;47.408;18.822;2024-03-08T01:56:11;5.90;99.99
70166;SHT30;57541;47.408;18.822;2024-03-08T01:56:46;6.02;99.99
70166;SHT30;57541;47.408;18.822;2024-03-08T01:57:17;6.07;99.99
70166;SHT30;57541;47.408;18.822;2024-03-08T01:57:49;6.11;99.99
70166;SHT30;57541;47.408;18.822;2024-03-08T01:58:21;6.07;99.99
70166;SHT30;57541;47.408;18.822;2024-03-08T01:58:54;6.18;99.99
70166;SHT30;57541;47.408;18.822;2024-03-08T01:59:26;6.15;99.99
70166;SHT30;57541;47.408;18.822;2024-03-08T01:59:59;6.24;99.99
70166;SHT30;57541;47.408;18.822;2024-03-08T02:00:35;6.22;99.99
70166;SHT30;57541;47.408;18.822;2024-03-08T02:01:08;6.29;99.99
70166;SHT30;57541;47.408;18.822;2024-03-08T02:01:41;6.24;99.99
70166;SHT30;57541;47.408;18.822;2024-03-08T02:02:14;6.14;99.99
70166;SHT30;57541;47.408;18.822;2024-03-08T02:02:49;6.11;99.99
70166;SHT30;57541;47.408;18.822;2024-03-08T02:03:22;6.17;99.99
70166;SHT30;57541;47.408;18.822;2024-03-08T02:03:54;6.18;99.99
70166;SHT30;57541;47.408;18.822;2024-03-08T02:04:25;6.25;99.99
70166;SHT30;57541;47.408;18.822;2024-03-08T02:04:57;6.25;99.99
70166;SHT30;57541;47.408;18.822;2024-03-08T02:05:29;6.22;99.99
70166;SHT30;57541;47.408;18.822;2024-03-08T02:06:00;6.14;99.99
70166;SHT30;57541;47.408;18.822;2024-03-08T02:06:32;6.07;99.99
70166;SHT30;57541;47.408;18.822;2024-03-08T02:07:04;5.95;99.99
70166;SHT30;57541;47.408;18.822;2024-03-08T02:07:41;6.01;99.99
70166;SHT30;57541;47.408;18.822;2024-03-08T02:08:16;5.97;99.99
70166;SHT30;57541;47.408;18.822;2024-03-08T02:08:47;6.04;99.99
70166;SHT30;57541;47.408;18.822;2024-03-08T02:09:20;6.05;99.99
70166;SHT30;57541;47.408;18.822;2024-03-08T02:09:52;6.15;99.99
70166;SHT30;57541;47.408;18.822;2024-03-08T02:10:23;6.14;99.99
70166;SHT30;57541;47.408;18.822;2024-03-08T02:10:55;6.07;99.99
70166;SHT30;57541;47.408;18.822;2024-03-08T02:11:27;6.07;99.99
70166;SHT30;57541;47.408;18.822;2024-03-08T02:11:59;6.08;99.99
70166;SHT30;57541;47.408;18.822;2024-03-08T02:12:31;6.05;99.99
70166;SHT30;57541;47.408;18.822;2024-03-08T02:13:03;6.04;99.99
70166;SHT30;57541;47.408;18.822;2024-03-08T02:13:35;5.99;99.99
70166;SHT30;57541;47.408;18.822;2024-03-08T02:14:06;6.02;99.99
70166;SHT30;57541;47.408;18.822;2024-03-08T02:14:38;5.99;99.99
70166;SHT30;57541;47.408;18.822;2024-03-08T02:15:11;6.04;99.99
70166;SHT30;57541;47.408;18.822;2024-03-08T02:15:57;6.11;99.99
70166;SHT30;57541;47.408;18.822;2024-03-08T02:16:30;6.05;99.99
70166;SHT30;57541;47.408;18.822;2024-03-08T02:17:02;6.05;99.99
70166;SHT30;57541;47.408;18.822;2024-03-08T02:17:34;5.97;99.99
70166;SHT30;57541;47.408;18.822;2024-03-08T02:18:06;5.94;99.99
70166;SHT30;57541;47.408;18.822;2024-03-08T02:18:38;5.94;99.99
70166;SHT30;57541;47.408;18.822;2024-03-08T02:19:12;6.12;99.99
70166;SHT30;57541;47.408;18.822;2024-03-08T02:19:43;6.19;99.99
70166;SHT30;57541;47.408;18.822;2024-03-08T02:20:15;6.17;99.99
70166;SHT30;57541;47.408;18.822;2024-03-08T02:20:50;6.21;99.99
70166;SHT30;57541;47.408;18.822;2024-03-08T02:21:22;6.22;99.99
70166;SHT30;57541;47.408;18.822;2024-03-08T02:21:54;6.21;99.99
70166;SHT30;57541;47.408;18.822;2024-03-08T02:22:30;6.24;99.99
70166;SHT30;57541;47.408;18.822;2024-03-08T02:23:03;6.19;99.99
70166;SHT30;57541;47.408;18.822;2024-03-08T02:23:36;6.15;99.99
70166;SHT30;57541;47.408;18.822;2024-03-08T02:24:09;6.19;99.99
70166;SHT30;57541;47.408;18.822;2024-03-08T02:24:41;6.24;99.99
70166;SHT30;57541;47.408;18.822;2024-03-08T02:25:13;6.11;99.99
70166;SHT30;57541;47.408;18.822;2024-03-08T02:25:46;6.15;99.99
70166;SHT30;57541;47.408;18.822;2024-03-08T02:26:17;6.11;99.99
70166;SHT30;57541;47.408;18.822;2024-03-08T02:26:49;6.14;99.99
70166;SHT30;57541;47.408;18.822;2024-03-08T02:27:24;6.17;99.99
70166;SHT30;57541;47.408;18.822;2024-03-08T02:27:59;6.25;99.99
70166;SHT30;57541;47.408;18.822;2024-03-08T02:28:30;6.22;99.99
70166;SHT30;57541;47.408;18.822;2024-03-08T02:29:03;6.28;99.99
70166;SHT30;57541;47.408;18.822;2024-03-08T02:29:36;6.32;99.99
70166;SHT30;57541;47.408;18.822;2024-03-08T02:30:08;6.25;99.99
70166;SHT30;57541;47.408;18.822;2024-03-08T02:30:41;6.25;99.99
70166;SHT30;57541;47.408;18.822;2024-03-08T02:31:13;6.15;99.99
70166;SHT30;57541;47.408;18.822;2024-03-08T02:31:44;6.25;99.99
70166;SHT30;57541;47.408;18.822;2024-03-08T02:32:16;6.19;99.99
70166;SHT30;57541;47.408;18.822;2024-03-08T02:32:49;6.18;99.99
70166;SHT30;57541;47.408;18.822;2024-03-08T02:33:22;6.22;99.99
70166;SHT30;57541;47.408;18.822;2024-03-08T02:33:53;6.14;99.99
70166;SHT30;57541;47.408;18.822;2024-03-08T02:34:26;6.11;99.99
70166;SHT30;57541;47.408;18.822;2024-03-08T02:34:57;6.04;99.99
70166;SHT30;57541;47.408;18.822;2024-03-08T02:35:32;6.12;99.99
70166;SHT30;57541;47.408;18.822;2024-03-08T02:36:05;6.18;99.99
70166;SHT30;57541;47.408;18.822;2024-03-08T02:36:38;6.19;99.99
70166;SHT30;57541;47.408;18.822;2024-03-08T02:37:10;6.22;99.99
70166;SHT30;57541;47.408;18.822;2024-03-08T02:37:41;6.19;99.99
70166;SHT30;57541;47.408;18.822;2024-03-08T02:38:14;6.08;99.99
70166;SHT30;57541;47.408;18.822;2024-03-08T02:38:47;6.08;99.99
70166;SHT30;57541;47.408;18.822;2024-03-08T02:39:19;6.08;99.99
70166;SHT30;57541;47.408;18.822;2024-03-08T02:39:51;6.18;99.99
70166;SHT30;57541;47.408;18.822;2024-03-08T02:40:23;6.14;99.99
70166;SHT30;57541;47.408;18.822;2024-03-08T02:40:55;6.09;99.99
70166;SHT30;57541;47.408;18.822;2024-03-08T02:41:26;5.95;99.99
70166;SHT30;57541;47.408;18.822;2024-03-08T02:41:58;5.90;99.99
70166;SHT30;57541;47.408;18.822;2024-03-08T02:42:30;5.90;99.99
70166;SHT30;57541;47.408;18.822;2024-03-08T02:43:02;5.91;99.99
70166;SHT30;57541;47.408;18.822;2024-03-08T02:43:36;5.83;99.99
70166;SHT30;57541;47.408;18.822;2024-03-08T02:44:08;5.87;99.99
70166;SHT30;57541;47.408;18.822;2024-03-08T02:44:42;5.86;99.99
70166;SHT30;57541;47.408;18.822;2024-03-08T02:45:15;5.81;99.99
70166;SHT30;57541;47.408;18.822;2024-03-08T02:45:47;5.78;99.99
70166;SHT30;57541;47.408;18.822;2024-03-08T02:46:19;5.81;99.99
70166;SHT30;57541;47.408;18.822;2024-03-08T02:46:52;5.87;99.99
70166;SHT30;57541;47.408;18.822;2024-03-08T02:47:26;5.88;99.99
70166;SHT30;57541;47.408;18.822;2024-03-08T02:47:58;5.86;99.99
70166;SHT30;57541;47.408;18.822;2024-03-08T02:48:30;5.97;99.99
70166;SHT30;57541;47.408;18.822;2024-03-08T02:49:02;6.01;99.99
70166;SHT30;57541;47.408;18.822;2024-03-08T02:49:34;5.97;99.99
70166;SHT30;57541;47.408;18.822;2024-03-08T02:50:06;5.94;99.99
70166;SHT30;57541;47.408;18.822;2024-03-08T02:50:39;5.97;99.99
70166;SHT30;57541;47.408;18.822;2024-03-08T02:51:12;5.97;99.99
70166;SHT30;57541;47.408;18.822;2024-03-08T02:51:45;5.97;99.99
70166;SHT30;57541;47.408;18.822;2024-03-08T02:52:17;5.99;99.99
70166;SHT30;57541;47.408;18.822;2024-03-08T02:52:49;5.94;99.99
70166;SHT30;57541;47.408;18.822;2024-03-08T02:53:20;5.87;99.99
70166;SHT30;57541;47.408;18.822;2024-03-08T02:53:54;5.84;99.99
70166;SHT30;57541;47.408;18.822;2024-03-08T02:54:25;5.91;99.99
70166;SHT30;57541;47.408;18.822;2024-03-08T02:54:57;6.02;99.99
70166;SHT30;57541;47.408;18.822;2024-03-08T02:55:30;6.09;99.99
70166;SHT30;57541;47.408;18.822;2024-03-08T02:56:02;6.18;99.99
70166;SHT30;57541;47.408;18.822;2024-03-08T02:56:33;6.14;99.99
70166;SHT30;57541;47.408;18.822;2024-03-08T02:57:06;6.29;99.99
70166;SHT30;57541;47.408;18.822;2024-03-08T02:57:39;6.28;99.99
70166;SHT30;57541;47.408;18.822;2024-03-08T02:58:10;6.14;99.99
70166;SHT30;57541;47.408;18.822;2024-03-08T02:58:43;6.05;99.99
70166;SHT30;57541;47.408;18.822;2024-03-08T02:59:20;6.01;99.99
70166;SHT30;57541;47.408;18.822;2024-03-08T02:59:53;6.11;99.99
70166;SHT30;57541;47.408;18.822;2024-03-08T03:00:25;5.94;99.99
70166;SHT30;57541;47.408;18.822;2024-03-08T03:00:58;6.07;99.99
70166;SHT30;57541;47.408;18.822;2024-03-08T03:01:30;6.14;99.99
70166;SHT30;57541;47.408;18.822;2024-03-08T03:02:03;6.09;99.99
70166;SHT30;57541;47.408;18.822;2024-03-08T03:02:35;6.02;99.99
70166;SHT30;57541;47.408;18.822;2024-03-08T03:03:07;5.95;99.99
70166;SHT30;57541;47.408;18.822;2024-03-08T03:03:39;5.84;99.99
70166;SHT30;57541;47.408;18.822;2024-03-08T03:04:12;5.91;99.99
70166;SHT30;57541;47.408;18.822;2024-03-08T03:04:43;5.88;99.99
70166;SHT30;57541;47.408;18.822;2024-03-08T03:05:15;5.88;99.99
70166;SHT30;57541;47.408;18.822;2024-03-08T03:05:47;5.90;99.99
70166;SHT30;57541;47.408;18.822;2024-03-08T03:06:20;5.93;99.99
70166;SHT30;57541;47.408;18.822;2024-03-08T03:06:52;5.88;99.99
70166;SHT30;57541;47.408;18.822;2024-03-08T03:07:25;5.93;99.99
70166;SHT30;57541;47.408;18.822;2024-03-08T03:07:59;5.93;99.99
70166;SHT30;57541;47.408;18.822;2024-03-08T03:08:31;5.87;99.99
70166;SHT30;57541;47.408;18.822;2024-03-08T03:09:02;5.93;99.99
70166;SHT30;57541;47.408;18.822;2024-03-08T03:09:37;5.87;99.99
70166;SHT30;57541;47.408;18.822;2024-03-08T03:10:09;5.91;99.99
70166;SHT30;57541;47.408;18.822;2024-03-08T03:10:41;5.99;99.99
70166;SHT30;57541;47.408;18.822;2024-03-08T03:11:13;6.11;99.99
70166;SHT30;57541;47.408;18.822;2024-03-08T03:11:45;5.98;99.99
70166;SHT30;57541;47.408;18.822;2024-03-08T03:12:17;5.98;99.99
70166;SHT30;57541;47.408;18.822;2024-03-08T03:12:49;6.05;99.99
70166;SHT30;57541;47.408;18.822;2024-03-08T03:13:21;6.08;99.99
70166;SHT30;57541;47.408;18.822;2024-03-08T03:13:53;6.02;99.99
70166;SHT30;57541;47.408;18.822;2024-03-08T03:14:25;6.04;99.99
70166;SHT30;57541;47.408;18.822;2024-03-08T03:14:58;6.05;99.99
70166;SHT30;57541;47.408;18.822;2024-03-08T03:15:30;6.12;99.99
70166;SHT30;57541;47.408;18.822;2024-03-08T03:16:02;6.12;99.99
70166;SHT30;57541;47.408;18.822;2024-03-08T03:16:34;5.97;99.99
70166;SHT30;57541;47.408;18.822;2024-03-08T03:17:06;5.90;99.99
70166;SHT30;57541;47.408;18.822;2024-03-08T03:17:39;6.01;99.99
70166;SHT30;57541;47.408;18.822;2024-03-08T03:18:11;6.07;99.99
70166;SHT30;57541;47.408;18.822;2024-03-08T03:18:43;6.09;99.99
70166;SHT30;57541;47.408;18.822;2024-03-08T03:19:15;5.98;99.99
70166;SHT30;57541;47.408;18.822;2024-03-08T03:19:47;5.95;99.99
70166;SHT30;57541;47.408;18.822;2024-03-08T03:20:19;5.98;99.99
70166;SHT30;57541;47.408;18.822;2024-03-08T03:21:04;5.86;99.99
70166;SHT30;57541;47.408;18.822;2024-03-08T03:21:39;5.93;99.99
70166;SHT30;57541;47.408;18.822;2024-03-08T03:22:11;5.75;99.99
70166;SHT30;57541;47.408;18.822;2024-03-08T03:22:42;5.73;99.99
70166;SHT30;57541;47.408;18.822;2024-03-08T03:23:18;5.77;99.99
70166;SHT30;57541;47.408;18.822;2024-03-08T03:23:52;5.70;99.99
70166;SHT30;57541;47.408;18.822;2024-03-08T03:24:24;5.84;99.99
70166;SHT30;57541;47.408;18.822;2024-03-08T03:24:55;5.80;99.99